Rushville, OH

4:47 PM EDT on July 29, 2016 (GMT -0400)
Northern Lancaster Area | | Change Station

Elev 1000 ft 39.76 °N, 82.57 °W | Updated 49 seconds ago

Light Rain
Light Rain
81.9 °F
Feels Like 91 °F
N
3.0
Wind Variable Wind from SE
Gusts 3.0 mph

Today
High -- | Low -- °F
--% Chance of Precip.
Yesterday
High -- | Low -- °F
Precip. -- in
Pressure 29.91 in
Visibility 10.0 miles
Clouds Few 3600 ft
Mostly Cloudy 7000 ft
Overcast 12000 ft
Heat Index 91 °F
Dew Point 79 °F
Humidity 91%
Rainfall 0.01 in
Snow Depth Not available.
6:26 AM 8:45 PM
Waning Crescent, 19% visible
METAR KLHQ 291953Z AUTO 24005KT 10SM -RA FEW036 BKN070 OVC120 24/22 A2993 RMK AO2 RAB43 TSB16E42 SLP128 P0000 T02440222
Pressure 29.91 in
Visibility 10.0 miles
Clouds Few 3600 ft
Mostly Cloudy 7000 ft
Overcast 12000 ft
Heat Index 91 °F
Dew Point 79 °F
Humidity 91%
Rainfall 0.01 in
Snow Depth Not available.
6:26 AM 8:45 PM
Waning Crescent, 19% visible
METAR KLHQ 291953Z AUTO 24005KT 10SM -RA FEW036 BKN070 OVC120 24/22 A2993 RMK AO2 RAB43 TSB16E42 SLP128 P0000 T02440222

10-Day Weather Forecast

Almanac

Astronomy

Jul. 29, 2016 Rise Set
Actual Time
Civil Twilight
Nautical Twilight
Astronomical Twilight
Moon
Length of Visible Light
Length of Day
Tomorrow will be .
, % of the Moon is Illuminated

Today's Extremes

State Highs State Lows

Community

WunderPhotos

Upload Photos

1,928,411 photos uploaded!

WunderBlog® & News

Nearby

Air Quality

  Air Quality AQ Index Pollutant
Not available.

Snow Depth

Station Depth Elevation

Earthquake Activity

City Distance Mag. Time & Date
Minimum magnitude displayed is 2.5.

Coastal Water Temperatures

Place Temperature

Stations

Nearby Weather Stations

Station Location Temp. Windchill Dew Point Humidity Wind Precip. Elev Updated Type
                   

Watches & Warnings

There are currently no watches in effect.